Mexico, MO (65265)

7:55 AM CDT on April 26, 2017 (GMT -0500)
Near Lakeview Lake | | Change Station

Elev 817 ft 39.16 °N, 91.89 °W | Updated 1 second ago

Mostly Cloudy
Mostly Cloudy
59.9 °F
Feels Like 59.9 °F
N
0.0
Wind Variable Wind from WSW
Gusts 1.0 mph

Today
High -- | Low -- °F
--% Chance of Precip.
Yesterday
High -- | Low -- °F
Precip. -- in
Pressure 29.47 in
Visibility 10.0 miles
Clouds Few 300 ft
Mostly Cloudy 1000 ft
Mostly Cloudy 1400 ft
Dew Point 59 °F
Humidity 96%
Rainfall 0.66 in
Snow Depth Not available.
6:15 AM 7:56 PM
New Moon, 0% visible
METAR KCOU 261154Z 27011KT 10SM FEW003 BKN010 BKN014 15/15 A2949 RMK AO2 CIG 007V013 SLP980 60075 70075 T01500150 10189 20144 55017
Pressure 29.47 in
Visibility 10.0 miles
Clouds Few 300 ft
Mostly Cloudy 1000 ft
Mostly Cloudy 1400 ft
Dew Point 59 °F
Humidity 96%
Rainfall 0.66 in
Snow Depth Not available.
6:15 AM 7:56 PM
New Moon, 0% visible
METAR KCOU 261154Z 27011KT 10SM FEW003 BKN010 BKN014 15/15 A2949 RMK AO2 CIG 007V013 SLP980 60075 70075 T01500150 10189 20144 55017

Get Severe Weather Alerts

Thanks for signing up!

Be on the lookout for a verification email in your inbox.

You'll start receiving the daily forecast at 8 AM.

×

10-Day Weather Forecast

Almanac

Astronomy

Apr. 26, 2017 Rise Set
Actual Time
Civil Twilight
Nautical Twilight
Astronomical Twilight
Moon
Length of Visible Light
Length of Day
Tomorrow will be .
, % of the Moon is Illuminated

Today's Extremes

State Highs State Lows

Community

WunderPhotos

WunderBlog® & News

Nearby

Air Quality

  Air Quality AQ Index Pollutant
Not available.

Snow Depth

Station Depth Elevation

Earthquake Activity

City Distance Mag. Time & Date
Minimum magnitude displayed is 2.5.

Coastal Water Temperatures

Place Temperature

Stations

Nearby Weather Stations

Station Location Temp. Windchill Dew Point Humidity Wind Precip. Elev Updated Type
                   

Watches & Warnings

There are currently no watches in effect.